Redding Center, Connecticut
Current Conditions -  °F | °C
As of 5:53 AM on Friday 24 Oct 2014 (Local Time) from KDXR Reporting Station
Light Rain Light Rain  
Wind Chill: 47°   Ceiling: 1700
Heat Index: 49°   Visibility: 10mi
Dew Point: 41°   Wind: 5mph
Humidity: 74%   Direction: 330°NNW
Pressure: 29.78"   Gusts: NA
Location:  41.3°N, 73.38°W
Report Text: KDXR 240953Z AUTO 33004KT 10SM -RA BKN017 BKN048 OVC060 09/05 A2978 RMK AO2 RAB43 SLP084 P0000 T00940050
Loading
Personal Weather Stations






























Interactive Weather Map
Tropical Storm Tracking
New forecast layout! Learn more

10-Day Weather Forecast

Advertisements
Track Severe Weather on mobile